Time;durP1;ratioP1;P1;durP2;ratioP2;P2;SDS_P1;SDS_P2;PMS_P1;PMS_P2;Temp;Humidity;BMP_temperature;BMP_pressure;BME280_temperature;BME280_humidity;BME280_pressure;Samples;Min_cycle;Max_cycle;Signal;HPM_P1;HPM_P2
2022/03/25 00:00:24;;;;;;;14.03;8.43;;;13.20;32.50;;;;;;5069153;28;20448;-69
2022/03/25 00:02:51;;;;;;;11.63;8.17;;;13.20;32.40;;;;;;5069232;28;20544;-68
2022/03/25 00:05:19;;;;;;;12.30;8.40;;;13.10;32.70;;;;;;5069094;28;20455;-70
2022/03/25 00:07:46;;;;;;;12.17;7.40;;;13.00;32.80;;;;;;5068994;28;20969;-69
2022/03/25 00:10:13;;;;;;;12.20;8.13;;;13.00;32.80;;;;;;5068933;28;20780;-69
2022/03/25 00:12:42;;;;;;;12.37;9.23;;;13.00;32.70;;;;;;5069003;28;20941;-70
2022/03/25 00:15:09;;;;;;;14.30;8.30;;;12.90;32.70;;;;;;5068815;28;20488;-70
2022/03/25 00:17:37;;;;;;;10.27;7.40;;;12.90;32.60;;;;;;5068980;28;20477;-69
2022/03/25 00:20:05;;;;;;;10.17;7.70;;;12.90;32.80;;;;;;5068976;28;20460;-68
2022/03/25 00:22:32;;;;;;;11.23;8.37;;;12.90;32.90;;;;;;5069454;28;20536;-68
2022/03/25 00:24:59;;;;;;;14.47;8.47;;;13.00;32.80;;;;;;5072744;28;21024;-68
2022/03/25 00:27:26;;;;;;;11.03;7.90;;;13.10;32.60;;;;;;5072588;28;20493;-68
2022/03/25 00:29:55;;;;;;;17.53;8.80;;;13.10;32.40;;;;;;5072809;28;20460;-68
2022/03/25 00:32:22;;;;;;;13.20;8.30;;;13.10;32.10;;;;;;5072734;28;20463;-70
2022/03/25 00:34:49;;;;;;;12.00;7.90;;;13.00;32.40;;;;;;5072382;28;20489;-70
2022/03/25 00:37:17;;;;;;;12.57;8.07;;;13.10;32.20;;;;;;5072376;28;20472;-69
2022/03/25 00:39:44;;;;;;;8.93;7.80;;;13.10;32.40;;;;;;5072350;28;20782;-69
2022/03/25 00:42:13;;;;;;;12.60;7.60;;;13.20;32.30;;;;;;5072704;28;20484;-68
2022/03/25 00:44:41;;;;;;;11.17;7.70;;;13.20;32.20;;;;;;5072675;28;20449;-69
2022/03/25 00:47:09;;;;;;;11.60;7.40;;;13.30;32.10;;;;;;5072522;28;20453;-69
2022/03/25 00:49:37;;;;;;;10.30;7.43;;;13.30;32.20;;;;;;5072127;28;20449;-69
2022/03/25 00:52:04;;;;;;;13.23;7.00;;;13.30;32.30;;;;;;5072289;28;20996;-68
2022/03/25 00:54:32;;;;;;;12.10;7.30;;;13.20;32.10;;;;;;5072183;28;20780;-69
2022/03/25 00:56:59;;;;;;;13.57;9.10;;;13.20;32.80;;;;;;5072323;28;20445;-69
2022/03/25 00:59:26;;;;;;;13.27;7.80;;;13.10;32.30;;;;;;5072415;28;20468;-69
2022/03/25 01:01:53;;;;;;;11.10;7.60;;;13.20;32.50;;;;;;5072296;28;20457;-68
2022/03/25 01:04:21;;;;;;;14.27;7.90;;;13.10;32.30;;;;;;5072170;28;20445;-69
2022/03/25 01:06:48;;;;;;;15.50;7.80;;;13.20;32.30;;;;;;5072212;28;20456;-68
2022/03/25 01:09:15;;;;;;;10.37;7.07;;;13.10;32.40;;;;;;5071951;28;20477;-69
2022/03/25 01:11:43;;;;;;;21.20;8.57;;;13.10;32.20;;;;;;5071998;28;20445;-68
2022/03/25 01:14:10;;;;;;;10.93;7.30;;;13.10;32.60;;;;;;5071952;28;21004;-70
2022/03/25 01:16:37;;;;;;;11.57;6.63;;;13.10;32.40;;;;;;5071625;28;20456;-69
2022/03/25 01:19:05;;;;;;;10.83;7.40;;;13.10;32.50;;;;;;5071730;28;20475;-68
2022/03/25 01:21:34;;;;;;;11.90;8.23;;;13.10;32.50;;;;;;5071810;28;20539;-69
2022/03/25 01:24:01;;;;;;;14.60;8.07;;;13.10;32.50;;;;;;5071703;28;20475;-69
2022/03/25 01:26:28;;;;;;;10.60;7.90;;;12.90;32.80;;;;;;5071621;28;20862;-69
2022/03/25 01:28:55;;;;;;;12.47;8.27;;;12.90;32.70;;;;;;5071704;28;20473;-69
2022/03/25 01:31:22;;;;;;;11.23;6.47;;;12.90;32.70;;;;;;5071556;28;20464;-69
2022/03/25 01:33:49;;;;;;;11.70;8.50;;;12.80;32.50;;;;;;5071117;28;20457;-69
2022/03/25 01:36:18;;;;;;;8.80;6.60;;;12.70;32.60;;;;;;5071469;28;20598;-68
2022/03/25 01:38:47;;;;;;;12.13;6.63;;;12.80;32.70;;;;;;5071663;28;20461;-69
2022/03/25 01:41:17;;;;;;;12.30;7.27;;;12.80;32.70;;;;;;5071517;28;20449;-69
2022/03/25 01:43:45;;;;;;;10.47;7.53;;;12.70;32.70;;;;;;5071196;28;20785;-69
2022/03/25 01:46:13;;;;;;;12.20;8.20;;;12.70;33.10;;;;;;5071115;28;20546;-68
2022/03/25 01:48:40;;;;;;;12.27;7.80;;;12.70;33.00;;;;;;5071349;28;20807;-68
2022/03/25 01:51:07;;;;;;;10.50;8.30;;;12.70;33.10;;;;;;5071519;28;20866;-68
2022/03/25 01:53:34;;;;;;;12.50;7.30;;;12.70;33.20;;;;;;5071157;28;20969;-69
2022/03/25 01:56:05;;;;;;;15.43;7.43;;;12.70;33.10;;;;;;5071140;28;20487;-68
2022/03/25 01:58:33;;;;;;;12.77;7.37;;;12.70;32.90;;;;;;5070908;28;20946;-69
2022/03/25 02:01:04;;;;;;;12.57;8.10;;;12.60;32.90;;;;;;5070943;28;20453;-69
2022/03/25 02:03:32;;;;;;;10.50;7.80;;;12.60;32.80;;;;;;5070826;28;20473;-69
2022/03/25 02:05:59;;;;;;;12.73;8.00;;;12.70;32.90;;;;;;5070996;28;20506;-68
2022/03/25 02:08:26;;;;;;;11.50;7.90;;;12.60;33.50;;;;;;5071031;28;20529;-68
2022/03/25 02:10:54;;;;;;;11.53;8.23;;;12.40;32.90;;;;;;5070658;28;20515;-69
2022/03/25 02:13:23;;;;;;;13.10;7.83;;;12.40;33.10;;;;;;5070648;28;20453;-69
2022/03/25 02:15:50;;;;;;;13.17;7.63;;;12.40;33.10;;;;;;5070572;28;20496;-68
2022/03/25 02:18:19;;;;;;;10.93;7.80;;;12.30;33.20;;;;;;5070769;28;20464;-69
2022/03/25 02:20:48;;;;;;;10.93;7.60;;;12.30;33.70;;;;;;5070869;28;20594;-69
2022/03/25 02:23:17;;;;;;;14.83;8.00;;;12.30;33.10;;;;;;5070347;28;20522;-69
2022/03/25 02:25:44;;;;;;;12.67;7.77;;;12.30;33.20;;;;;;5070569;28;20452;-69
2022/03/25 02:28:12;;;;;;;13.73;7.80;;;12.30;33.20;;;;;;5070625;28;20923;-69
2022/03/25 02:30:39;;;;;;;11.33;7.30;;;12.30;33.30;;;;;;5070283;28;20979;-69
2022/03/25 02:33:08;;;;;;;11.50;8.10;;;12.30;33.40;;;;;;5070632;28;20457;-69
2022/03/25 02:35:42;;;;;;;12.80;8.00;;;12.20;33.50;;;;;;5070441;28;20992;-70
2022/03/25 02:38:11;;;;;;;10.13;6.90;;;12.20;33.50;;;;;;5070151;28;20444;-68
2022/03/25 02:40:39;;;;;;;12.17;7.70;;;12.30;33.50;;;;;;5070796;28;20453;-67
2022/03/25 02:43:07;;;;;;;10.87;7.27;;;12.30;33.40;;;;;;5070556;28;20460;-68
2022/03/25 02:45:34;;;;;;;9.73;7.73;;;12.20;33.60;;;;;;5069638;28;20475;-68
2022/03/25 02:48:02;;;;;;;12.10;7.93;;;12.20;33.60;;;;;;5070136;28;20484;-69
2022/03/25 02:50:30;;;;;;;17.93;8.07;;;12.30;33.80;;;;;;5070001;28;20854;-68
2022/03/25 02:52:58;;;;;;;11.97;7.40;;;12.30;33.70;;;;;;5070112;28;20560;-68
2022/03/25 02:55:25;;;;;;;14.03;11.43;;;12.30;33.60;;;;;;5069989;28;20489;-69
2022/03/25 02:57:54;;;;;;;12.23;8.13;;;12.40;33.80;;;;;;5070008;28;20504;-69
2022/03/25 03:00:25;;;;;;;12.43;7.30;;;12.50;33.80;;;;;;5069852;28;20460;-69
2022/03/25 03:02:53;;;;;;;10.03;6.53;;;12.50;33.90;;;;;;5069927;28;20491;-69
2022/03/25 03:05:21;;;;;;;11.37;7.90;;;12.60;34.30;;;;;;5069673;28;20452;-69
2022/03/25 03:07:48;;;;;;;13.80;8.50;;;12.60;34.30;;;;;;5069641;28;20507;-69
2022/03/25 03:10:16;;;;;;;13.40;7.87;;;12.70;34.20;;;;;;5069727;28;20937;-68
2022/03/25 03:12:44;;;;;;;14.23;7.97;;;12.70;34.00;;;;;;5069853;28;20487;-69
2022/03/25 03:15:15;;;;;;;11.03;7.70;;;12.70;34.10;;;;;;5069799;28;20931;-69
2022/03/25 03:17:43;;;;;;;11.90;8.87;;;12.60;34.30;;;;;;5069402;28;20481;-72
2022/03/25 03:20:11;;;;;;;11.07;7.87;;;12.50;34.10;;;;;;5069569;28;20457;-74
2022/03/25 03:22:38;;;;;;;11.20;8.20;;;12.50;34.20;;;;;;5069730;28;20511;-75
2022/03/25 03:25:06;;;;;;;14.90;8.27;;;12.60;34.30;;;;;;5069796;28;20460;-73
2022/03/25 03:27:34;;;;;;;14.00;8.90;;;12.60;34.40;;;;;;5069102;28;20985;-74
2022/03/25 03:30:01;;;;;;;12.30;8.83;;;12.50;34.20;;;;;;5069646;28;20457;-75
2022/03/25 03:32:29;;;;;;;13.57;8.73;;;12.60;34.00;;;;;;5069368;28;20475;-69
2022/03/25 03:34:57;;;;;;;12.37;9.40;;;12.70;34.00;;;;;;5069348;28;20952;-70
2022/03/25 03:37:24;;;;;;;10.90;7.80;;;12.70;33.90;;;;;;5069345;28;20503;-69
2022/03/25 03:39:52;;;;;;;12.90;8.80;;;12.60;33.80;;;;;;5069612;28;20459;-70
2022/03/25 03:42:19;;;;;;;13.50;8.47;;;12.40;34.10;;;;;;5069463;28;20448;-70
2022/03/25 03:44:46;;;;;;;14.20;9.47;;;12.30;34.50;;;;;;5069429;28;20464;-70
2022/03/25 03:47:15;;;;;;;18.67;9.10;;;12.20;34.70;;;;;;5069215;28;20471;-70
2022/03/25 03:49:43;;;;;;;12.63;8.23;;;12.30;34.70;;;;;;5069110;28;20452;-70
2022/03/25 03:52:10;;;;;;;12.30;8.27;;;12.30;34.80;;;;;;5069515;28;20452;-70
2022/03/25 03:54:38;;;;;;;13.50;8.93;;;12.40;34.60;;;;;;5069663;28;20867;-69
2022/03/25 03:57:07;;;;;;;12.60;7.87;;;12.40;34.50;;;;;;5070809;28;20581;-69
2022/03/25 03:59:34;;;;;;;16.50;9.37;;;12.40;34.80;;;;;;5073408;28;20464;-70
2022/03/25 04:02:01;;;;;;;15.00;10.13;;;12.30;34.80;;;;;;5073376;28;20526;-70
2022/03/25 04:04:28;;;;;;;18.03;9.90;;;12.40;34.70;;;;;;5073346;28;20499;-70
2022/03/25 04:06:57;;;;;;;12.50;8.10;;;12.40;35.30;;;;;;5073233;28;20468;-69
2022/03/25 04:09:24;;;;;;;14.07;8.20;;;12.30;35.40;;;;;;5073390;28;20448;-70
2022/03/25 04:11:51;;;;;;;14.60;8.40;;;12.30;35.50;;;;;;5073079;28;20453;-69
2022/03/25 04:14:18;;;;;;;10.70;7.53;;;12.30;35.10;;;;;;5073283;28;20449;-71
2022/03/25 04:16:45;;;;;;;12.30;8.20;;;12.30;35.20;;;;;;5073134;28;20493;-69
2022/03/25 04:19:12;;;;;;;17.20;8.50;;;12.20;35.40;;;;;;5073192;28;20930;-69
2022/03/25 04:21:39;;;;;;;12.63;8.10;;;12.20;35.30;;;;;;5073023;28;20983;-70
2022/03/25 04:24:08;;;;;;;11.80;7.90;;;12.00;34.80;;;;;;5072927;28;20460;-70
2022/03/25 04:26:35;;;;;;;12.13;7.77;;;12.00;34.70;;;;;;5072380;28;20480;-69
2022/03/25 04:29:02;;;;;;;12.20;8.77;;;12.00;34.50;;;;;;5072669;28;20453;-69
2022/03/25 04:31:30;;;;;;;13.33;8.10;;;11.90;34.80;;;;;;5072836;28;20488;-69
2022/03/25 04:33:57;;;;;;;15.37;7.43;;;11.90;34.80;;;;;;5073025;28;21188;-69
2022/03/25 04:36:24;;;;;;;10.67;8.30;;;11.90;35.00;;;;;;5072624;28;20485;-69
2022/03/25 04:38:51;;;;;;;13.43;8.90;;;11.90;35.30;;;;;;5072796;28;20456;-69
2022/03/25 04:41:19;;;;;;;14.33;8.97;;;12.00;35.70;;;;;;5072432;28;20476;-69
2022/03/25 04:43:47;;;;;;;13.93;8.63;;;12.00;35.30;;;;;;5072298;28;20857;-69
2022/03/25 04:46:14;;;;;;;14.00;8.80;;;12.10;35.30;;;;;;5072574;28;20477;-69
2022/03/25 04:48:41;;;;;;;14.27;8.23;;;12.20;35.10;;;;;;5072090;28;20973;-69
2022/03/25 04:51:08;;;;;;;16.40;8.30;;;12.30;34.70;;;;;;5072322;28;20456;-69
2022/03/25 04:53:38;;;;;;;13.40;8.17;;;12.20;35.40;;;;;;5072064;28;20939;-69
2022/03/25 04:56:05;;;;;;;11.47;8.27;;;12.30;35.30;;;;;;5072155;28;20488;-68
2022/03/25 04:58:34;;;;;;;13.50;8.97;;;12.40;34.90;;;;;;5072119;28;21004;-69
2022/03/25 05:01:01;;;;;;;14.47;7.60;;;12.30;35.30;;;;;;5072378;28;20992;-70
2022/03/25 05:03:28;;;;;;;12.03;8.70;;;12.40;35.40;;;;;;5072260;28;20457;-69
2022/03/25 05:05:55;;;;;;;15.00;8.47;;;12.50;35.40;;;;;;5071819;28;20453;-69
2022/03/25 05:08:22;;;;;;;12.20;7.83;;;12.50;35.60;;;;;;5070993;28;20500;-69
2022/03/25 05:10:49;;;;;;;12.20;8.63;;;12.60;35.60;;;;;;5072023;28;20782;-69
2022/03/25 05:13:16;;;;;;;13.07;8.70;;;12.60;35.60;;;;;;5072032;28;20445;-69
2022/03/25 05:15:45;;;;;;;11.17;8.23;;;12.60;35.60;;;;;;5071889;28;20481;-69
2022/03/25 05:18:12;;;;;;;15.50;9.67;;;12.50;35.90;;;;;;5072109;28;20473;-69
2022/03/25 05:20:39;;;;;;;16.57;10.50;;;12.60;35.50;;;;;;5071595;28;20445;-69
2022/03/25 05:23:06;;;;;;;13.20;9.60;;;12.60;35.30;;;;;;5071673;28;20473;-70
2022/03/25 05:25:34;;;;;;;14.70;10.10;;;12.60;35.00;;;;;;5071529;28;20456;-69
2022/03/25 05:28:01;;;;;;;14.43;10.20;;;12.30;35.00;;;;;;5071674;28;20493;-69
2022/03/25 05:30:29;;;;;;;15.10;11.30;;;12.40;35.60;;;;;;5071774;28;20461;-69
2022/03/25 05:32:58;;;;;;;22.47;13.67;;;12.40;35.80;;;;;;5071678;28;20449;-68
2022/03/25 05:35:28;;;;;;;14.37;10.07;;;12.30;35.30;;;;;;5071378;28;20453;-70
2022/03/25 05:37:55;;;;;;;14.07;11.50;;;12.30;35.60;;;;;;5071433;28;20480;-70
2022/03/25 05:40:25;;;;;;;15.87;10.20;;;12.30;35.30;;;;;;5071583;28;20449;-69
2022/03/25 05:42:52;;;;;;;15.90;10.07;;;12.40;35.50;;;;;;5071597;28;20964;-70
2022/03/25 05:45:21;;;;;;;15.50;9.77;;;12.60;35.40;;;;;;5071621;28;20449;-70
2022/03/25 05:47:49;;;;;;;18.37;10.77;;;12.60;35.10;;;;;;5071381;28;20527;-70
2022/03/25 05:50:18;;;;;;;19.93;10.60;;;12.70;34.70;;;;;;5071606;28;20542;-75
2022/03/25 05:52:46;;;;;;;14.47;10.40;;;12.80;35.20;;;;;;5071473;28;20449;-69
2022/03/25 05:55:14;;;;;;;14.60;9.23;;;12.80;35.10;;;;;;5071410;28;20544;-71
2022/03/25 05:57:41;;;;;;;14.30;8.83;;;13.00;34.80;;;;;;5071185;28;20929;-69
2022/03/25 06:00:09;;;;;;;18.07;10.17;;;13.00;34.40;;;;;;5070938;28;20449;-70
2022/03/25 06:02:37;;;;;;;15.57;10.27;;;13.10;34.90;;;;;;5071195;28;20592;-70
2022/03/25 06:05:04;;;;;;;16.23;10.03;;;13.20;34.80;;;;;;5071141;28;20453;-71
2022/03/25 06:07:37;;;;;;;15.80;10.10;;;13.20;34.40;;;;;;5071035;28;20472;-70
2022/03/25 06:10:05;;;;;;;15.67;10.70;;;13.00;34.40;;;;;;5070893;28;20453;-70
2022/03/25 06:12:32;;;;;;;13.40;9.50;;;13.20;34.60;;;;;;5070496;28;20452;-71
2022/03/25 06:14:59;;;;;;;21.00;11.20;;;13.20;34.50;;;;;;5070782;28;20464;-81
2022/03/25 06:17:27;;;;;;;13.27;9.60;;;13.30;34.50;;;;;;5070824;28;20497;-78
2022/03/25 06:19:54;;;;;;;20.63;9.70;;;13.40;34.50;;;;;;5071517;28;20533;-77
2022/03/25 06:22:23;;;;;;;13.40;9.90;;;13.50;34.70;;;;;;5070711;28;20454;-75
2022/03/25 06:24:52;;;;;;;14.13;10.33;;;13.60;34.60;;;;;;5070878;28;20460;-75
2022/03/25 06:27:20;;;;;;;17.50;8.67;;;13.60;33.90;;;;;;5070396;28;20576;-76
2022/03/25 06:29:47;;;;;;;15.20;9.53;;;13.70;34.10;;;;;;5070276;28;20449;-73
2022/03/25 06:32:14;;;;;;;16.43;10.20;;;13.90;34.20;;;;;;5070660;28;20948;-77
2022/03/25 06:34:43;;;;;;;13.50;9.33;;;13.90;33.90;;;;;;5070729;28;20445;-75
2022/03/25 06:37:10;;;;;;;18.27;10.13;;;13.90;33.80;;;;;;5070535;28;20497;-68
2022/03/25 06:39:37;;;;;;;17.27;11.13;;;14.10;33.60;;;;;;5070117;28;20449;-67
2022/03/25 06:42:06;;;;;;;17.43;10.90;;;14.10;33.10;;;;;;5069969;28;20934;-68
2022/03/25 06:44:33;;;;;;;19.90;11.20;;;14.20;32.80;;;;;;5070675;28;20449;-73
2022/03/25 06:47:00;;;;;;;15.43;10.10;;;14.30;32.70;;;;;;5070769;28;20449;-72
2022/03/25 06:49:28;;;;;;;16.17;10.80;;;14.30;32.30;;;;;;5070439;28;20460;-73
2022/03/25 06:51:55;;;;;;;18.03;10.40;;;14.10;32.10;;;;;;5075107;28;20453;-73
2022/03/25 06:54:23;;;;;;;20.47;12.03;;;14.20;32.20;;;;;;5072092;28;20460;-68
2022/03/25 06:56:50;;;;;;;15.60;11.43;;;14.10;32.10;;;;;;5070657;28;20488;-72
2022/03/25 06:59:21;;;;;;;20.40;11.97;;;14.20;32.30;;;;;;5069996;28;20463;-73
2022/03/25 07:01:48;;;;;;;18.00;11.20;;;14.30;32.20;;;;;;5069932;28;20765;-74
2022/03/25 07:04:16;;;;;;;17.10;12.90;;;14.40;32.30;;;;;;5069934;28;20448;-69
2022/03/25 07:06:48;;;;;;;18.70;11.60;;;14.50;32.20;;;;;;5069811;28;20533;-75
2022/03/25 07:09:16;;;;;;;19.83;12.97;;;14.60;32.10;;;;;;5069644;28;20453;-70
2022/03/25 07:11:44;;;;;;;15.30;11.80;;;14.60;32.10;;;;;;5069785;28;20462;-69
2022/03/25 07:14:11;;;;;;;15.43;11.63;;;14.60;32.10;;;;;;5069875;28;20540;-70
2022/03/25 07:16:42;;;;;;;27.10;13.67;;;14.70;32.30;;;;;;5069703;28;21016;-68
2022/03/25 07:19:09;;;;;;;17.83;11.80;;;14.70;32.30;;;;;;5069677;28;20476;-68
2022/03/25 07:21:37;;;;;;;16.57;11.57;;;14.50;32.40;;;;;;5069302;28;20460;-70
2022/03/25 07:24:04;;;;;;;20.00;13.20;;;14.50;32.40;;;;;;5069626;28;20468;-70
2022/03/25 07:26:31;;;;;;;16.00;12.57;;;14.70;32.80;;;;;;5069179;28;20993;-69
2022/03/25 07:28:58;;;;;;;18.07;13.43;;;14.80;32.40;;;;;;5069532;28;20472;-69
2022/03/25 07:31:28;;;;;;;17.67;13.13;;;14.70;32.60;;;;;;5069244;28;20930;-68
2022/03/25 07:33:57;;;;;;;22.00;14.30;;;14.80;33.00;;;;;;5069187;28;20456;-70
2022/03/25 07:36:24;;;;;;;22.13;13.50;;;14.90;32.60;;;;;;5069319;28;20484;-72
2022/03/25 07:38:52;;;;;;;17.90;14.10;;;15.00;32.50;;;;;;5070109;28;20507;-67
2022/03/25 07:41:19;;;;;;;16.03;12.33;;;15.00;32.60;;;;;;5069707;28;20459;-68
2022/03/25 07:43:46;;;;;;;16.70;12.87;;;15.10;32.80;;;;;;5069486;28;20451;-68
2022/03/25 07:46:14;;;;;;;17.23;14.00;;;15.40;32.90;;;;;;5069496;28;20460;-68
2022/03/25 07:48:41;;;;;;;15.97;13.07;;;15.60;32.30;;;;;;5069386;28;20529;-67
2022/03/25 07:51:10;;;;;;;16.13;13.80;;;15.70;32.20;;;;;;5069575;28;20448;-69
2022/03/25 07:53:37;;;;;;;20.00;14.17;;;15.70;31.90;;;;;;5069201;28;20945;-68
2022/03/25 07:56:05;;;;;;;22.67;13.93;;;15.90;32.00;;;;;;5069515;28;20449;-69
2022/03/25 07:58:32;;;;;;;21.70;13.73;;;15.90;31.40;;;;;;5069249;28;20477;-69
2022/03/25 08:00:59;;;;;;;26.03;14.43;;;15.90;31.70;;;;;;5068823;28;20445;-69
2022/03/25 08:03:26;;;;;;;22.23;13.87;;;15.80;31.40;;;;;;5069126;28;20473;-69
2022/03/25 08:05:54;;;;;;;17.50;13.90;;;16.00;31.80;;;;;;5068962;28;20846;-69
2022/03/25 08:08:23;;;;;;;19.07;13.90;;;15.90;31.40;;;;;;5069063;28;20468;-68
2022/03/25 08:10:55;;;;;;;17.40;12.70;;;15.90;31.80;;;;;;5069177;28;20461;-68
2022/03/25 08:13:22;;;;;;;17.63;13.07;;;16.00;31.60;;;;;;5069226;28;20540;-68
2022/03/25 08:15:49;;;;;;;18.23;15.93;;;15.80;31.50;;;;;;5069139;28;20504;-76
2022/03/25 08:18:17;;;;;;;24.00;14.57;;;15.90;32.10;;;;;;5068985;28;20868;-74
2022/03/25 08:20:46;;;;;;;19.47;13.13;;;16.00;31.70;;;;;;5069063;28;20606;-68
2022/03/25 08:27:48;;;;;;;19.70;13.17;;;16.20;31.60;;;;;;5068671;28;20465;-67
2022/03/25 08:28:48;;;;;;;17.47;12.00;;;16.20;31.40;;;;;;5068950;28;20447;-67
2022/03/25 08:31:15;;;;;;;36.23;14.50;;;16.30;31.30;;;;;;5069077;28;20453;-69
2022/03/25 08:33:42;;;;;;;24.70;13.47;;;16.30;31.40;;;;;;5068940;28;20457;-69
2022/03/25 08:36:10;;;;;;;18.70;13.10;;;16.30;31.40;;;;;;5068920;28;20452;-67
2022/03/25 08:38:37;;;;;;;18.10;12.57;;;16.40;31.80;;;;;;5068727;28;20499;-67
2022/03/25 08:41:05;;;;;;;19.60;12.50;;;16.50;32.00;;;;;;5068802;28;20574;-67
2022/03/25 08:43:32;;;;;;;16.67;11.23;;;16.80;31.50;;;;;;5069536;28;20459;-68
2022/03/25 08:46:00;;;;;;;21.90;13.20;;;16.90;30.70;;;;;;5072465;28;20456;-69
2022/03/25 08:48:28;;;;;;;19.60;13.07;;;16.80;30.80;;;;;;5072309;28;20469;-69
2022/03/25 08:50:55;;;;;;;27.57;13.10;;;16.90;30.60;;;;;;5072413;28;20457;-70
2022/03/25 08:53:22;;;;;;;20.63;12.03;;;16.90;31.00;;;;;;5071883;28;20479;-67
2022/03/25 08:55:49;;;;;;;18.77;13.73;;;16.90;30.70;;;;;;5072029;28;20790;-67
2022/03/25 08:58:18;;;;;;;18.07;14.03;;;16.90;30.70;;;;;;5071978;28;20496;-66
2022/03/25 09:00:45;;;;;;;19.17;12.13;;;16.60;30.70;;;;;;5071284;28;20460;-68
2022/03/25 09:03:12;;;;;;;20.30;13.13;;;16.80;31.00;;;;;;5071390;28;20452;-70
2022/03/25 09:05:40;;;;;;;16.60;11.30;;;16.80;30.50;;;;;;5071478;28;20506;-68
2022/03/25 09:08:08;;;;;;;17.33;11.73;;;16.90;30.80;;;;;;5071502;28;20928;-66
2022/03/25 09:10:35;;;;;;;16.20;12.27;;;17.00;30.60;;;;;;5071902;28;20812;-67
2022/03/25 09:13:02;;;;;;;17.97;11.60;;;17.20;30.70;;;;;;5071562;28;20460;-70
2022/03/25 09:15:31;;;;;;;20.93;12.23;;;17.50;30.50;;;;;;5072024;28;20926;-68
2022/03/25 09:17:58;;;;;;;23.10;11.30;;;17.60;30.20;;;;;;5071672;28;20493;-69
2022/03/25 09:20:25;;;;;;;16.33;11.40;;;17.50;29.70;;;;;;5071788;28;20545;-68
2022/03/25 09:22:54;;;;;;;15.70;11.97;;;17.50;29.80;;;;;;5071551;28;20487;-66
2022/03/25 09:25:23;;;;;;;22.33;11.63;;;17.60;29.80;;;;;;5071721;28;20453;-67
2022/03/25 09:27:50;;;;;;;17.20;11.80;;;17.90;30.00;;;;;;5071384;28;20977;-68
2022/03/25 09:30:17;;;;;;;19.50;10.67;;;17.80;29.70;;;;;;5070991;28;20444;-68
2022/03/25 09:32:46;;;;;;;15.47;10.83;;;18.00;29.50;;;;;;5071235;28;20485;-69
2022/03/25 09:35:14;;;;;;;14.30;10.87;;;18.10;28.90;;;;;;5071100;28;20456;-66
2022/03/25 09:37:44;;;;;;;15.60;9.70;;;18.10;28.60;;;;;;5071216;28;20566;-68
2022/03/25 09:40:14;;;;;;;16.70;9.37;;;18.00;28.80;;;;;;5071360;28;20965;-67
2022/03/25 09:42:42;;;;;;;19.40;10.37;;;18.20;28.70;;;;;;5071399;28;20520;-69
2022/03/25 09:45:12;;;;;;;13.97;10.37;;;18.70;28.80;;;;;;5070860;28;20510;-68
2022/03/25 09:47:39;;;;;;;18.00;10.53;;;18.80;28.20;;;;;;5070932;28;20476;-67
2022/03/25 09:50:11;;;;;;;13.93;10.33;;;18.80;27.80;;;;;;5071187;28;20460;-68
2022/03/25 09:52:38;;;;;;;13.87;10.00;;;18.70;27.80;;;;;;5071231;28;20452;-69
2022/03/25 09:55:07;;;;;;;13.00;9.70;;;18.70;27.80;;;;;;5070424;28;20464;-65
2022/03/25 09:57:34;;;;;;;11.50;9.17;;;18.80;27.80;;;;;;5071141;28;20972;-66
2022/03/25 10:00:01;;;;;;;13.90;10.30;;;18.90;28.20;;;;;;5070704;28;20543;-67
2022/03/25 10:02:28;;;;;;;17.83;10.53;;;19.20;27.80;;;;;;5070982;28;20801;-66
2022/03/25 10:04:56;;;;;;;18.40;10.33;;;19.10;27.50;;;;;;5071055;28;20800;-67
2022/03/25 10:07:27;;;;;;;20.07;9.60;;;19.10;27.70;;;;;;5070889;28;20513;-66
2022/03/25 10:10:08;;;;;;;10.87;8.47;;;19.10;27.80;;;;;;5070916;28;20920;-67
2022/03/25 10:12:36;;;;;;;11.90;8.73;;;19.00;27.30;;;;;;5070568;28;20441;-67
2022/03/25 10:15:15;;;;;;;15.23;10.10;;;19.10;28.00;;;;;;5070528;28;20457;-66
2022/03/25 10:17:47;;;;;;;11.27;8.43;;;19.20;27.60;;;;;;5070572;28;20500;-67
2022/03/25 10:20:14;;;;;;;15.20;8.90;;;19.40;27.30;;;;;;5070244;28;20572;-65
2022/03/25 10:22:58;;;;;;;15.17;8.43;;;19.40;27.00;;;;;;5070305;28;20543;-66
2022/03/25 10:25:40;;;;;;;13.37;9.23;;;19.40;27.20;;;;;;5070543;28;20457;-67
2022/03/25 10:28:22;;;;;;;13.03;9.50;;;19.80;26.70;;;;;;5069967;28;20484;-67
2022/03/25 10:30:51;;;;;;;15.20;11.00;;;19.60;26.80;;;;;;5070143;28;20897;-68
2022/03/25 10:33:27;;;;;;;13.27;9.10;;;19.70;27.00;;;;;;5070105;28;21027;-66
2022/03/25 10:35:56;;;;;;;14.40;9.57;;;19.50;26.70;;;;;;5070087;28;20463;-65
2022/03/25 10:38:27;;;;;;;12.83;8.63;;;19.40;26.70;;;;;;5070034;28;20484;-66
2022/03/25 10:40:55;;;;;;;14.00;8.80;;;19.50;26.40;;;;;;5070180;28;20449;-67
2022/03/25 10:43:24;;;;;;;12.40;8.83;;;19.70;26.90;;;;;;5070082;28;20456;-70
2022/03/25 10:45:52;;;;;;;9.90;7.93;;;20.00;26.90;;;;;;5070080;28;20464;-71
2022/03/25 10:48:20;;;;;;;12.50;8.73;;;20.00;26.50;;;;;;5070011;28;20472;-72
2022/03/25 10:51:03;;;;;;;12.57;8.77;;;20.10;26.60;;;;;;5072297;28;20457;-68
2022/03/25 10:53:33;;;;;;;14.40;8.20;;;20.20;26.40;;;;;;5077580;28;20957;-70
2022/03/25 10:56:03;;;;;;;14.33;8.47;;;20.40;26.20;;;;;;5081239;28;20457;-69
2022/03/25 10:58:30;;;;;;;12.57;8.00;;;20.70;26.30;;;;;;5071993;28;20516;-72
2022/03/25 11:00:59;;;;;;;14.30;8.93;;;20.80;25.80;;;;;;5069705;28;20503;-71
2022/03/25 11:03:26;;;;;;;14.40;8.40;;;20.60;25.90;;;;;;5069826;28;20464;-69
2022/03/25 11:05:55;;;;;;;16.33;8.10;;;20.30;25.90;;;;;;5069785;28;20814;-73
2022/03/25 11:08:23;;;;;;;11.50;7.50;;;20.60;26.30;;;;;;5069920;28;20461;-75
2022/03/25 11:10:53;;;;;;;11.83;8.30;;;20.30;25.50;;;;;;5070134;28;20964;-74
2022/03/25 11:13:22;;;;;;;9.47;7.67;;;20.30;25.80;;;;;;5069907;28;20469;-75
2022/03/25 11:15:52;;;;;;;10.80;8.00;;;20.20;26.00;;;;;;5069956;28;20448;-73
2022/03/25 11:18:22;;;;;;;9.30;7.77;;;20.00;25.80;;;;;;5069344;28;20496;-71
2022/03/25 11:20:53;;;;;;;11.87;8.30;;;20.00;25.80;;;;;;5069405;28;20539;-69
2022/03/25 11:23:25;;;;;;;11.27;7.60;;;20.10;25.90;;;;;;5069474;28;20846;-76
2022/03/25 11:25:58;;;;;;;12.70;7.60;;;20.40;26.00;;;;;;5069592;28;20449;-80
2022/03/25 11:28:30;;;;;;;17.33;8.20;;;20.30;26.00;;;;;;5069625;28;20461;-81
2022/03/25 11:30:59;;;;;;;13.53;8.03;;;20.30;25.90;;;;;;5069456;28;20484;-77
2022/03/25 11:33:26;;;;;;;10.00;6.70;;;20.40;25.80;;;;;;5069429;28;20452;-79
2022/03/25 11:36:15;;;;;;;12.20;8.47;;;20.40;25.60;;;;;;5069355;28;20509;-76
2022/03/25 11:38:42;;;;;;;9.77;6.70;;;20.50;26.10;;;;;;5069231;28;20524;-79
2022/03/25 11:41:24;;;;;;;15.00;7.33;;;20.90;25.90;;;;;;5069255;28;20452;-78
2022/03/25 11:44:26;;;;;;;17.73;8.27;;;21.30;25.90;;;;;;5069542;28;21034;-74
2022/03/25 11:47:18;;;;;;;11.60;6.80;;;21.70;26.00;;;;;;5069091;28;20459;-75
2022/03/25 11:49:46;;;;;;;10.83;6.97;;;21.50;24.80;;;;;;5069173;28;20860;-77
2022/03/25 11:52:31;;;;;;;10.23;6.27;;;21.00;25.40;;;;;;5069320;28;20449;-69
2022/03/25 11:55:00;;;;;;;8.90;6.40;;;21.30;25.70;;;;;;5068946;28;21013;-67
2022/03/25 11:57:30;;;;;;;13.03;7.00;;;21.50;25.50;;;;;;5069167;28;20473;-67
2022/03/25 11:59:59;;;;;;;11.50;7.40;;;21.60;25.70;;;;;;5069142;28;20807;-69
2022/03/25 12:02:29;;;;;;;8.70;6.20;;;21.60;25.30;;;;;;5068947;28;20445;-68
2022/03/25 12:05:00;;;;;;;12.73;7.30;;;21.80;25.20;;;;;;5069728;28;20463;-67
2022/03/25 12:07:30;;;;;;;13.00;6.80;;;21.80;24.90;;;;;;5069598;28;20468;-66
2022/03/25 12:09:58;;;;;;;12.87;8.60;;;21.70;24.70;;;;;;5069079;28;20864;-67
2022/03/25 12:12:55;;;;;;;7.60;6.13;;;21.50;24.70;;;;;;5068816;28;20841;-69
2022/03/25 12:15:40;;;;;;;8.80;6.13;;;21.50;24.60;;;;;;5068736;28;20480;-68
2022/03/25 12:18:42;;;;;;;9.03;6.23;;;21.40;24.60;;;;;;5070356;28;20582;-68
2022/03/25 12:21:14;;;;;;;8.17;6.27;;;21.10;23.90;;;;;;5072800;28;20559;-68
2022/03/25 12:23:41;;;;;;;9.63;5.23;;;21.20;24.30;;;;;;5072512;28;20821;-68
2022/03/25 12:26:08;;;;;;;10.33;6.17;;;20.70;23.40;;;;;;5072414;28;20461;-68
2022/03/25 12:28:36;;;;;;;12.10;6.30;;;20.60;23.80;;;;;;5072264;28;20996;-67
2022/03/25 12:31:05;;;;;;;10.00;5.07;;;21.10;24.20;;;;;;5072966;28;20459;-67
2022/03/25 12:33:32;;;;;;;10.40;5.73;;;20.90;23.20;;;;;;5072719;28;20549;-67
2022/03/25 12:36:05;;;;;;;10.67;6.37;;;20.70;23.20;;;;;;5073242;28;20448;-68
2022/03/25 12:38:33;;;;;;;7.83;5.60;;;21.00;23.50;;;;;;5072349;28;20499;-68
2022/03/25 12:41:00;;;;;;;6.90;4.67;;;21.30;23.30;;;;;;5072402;28;20479;-68
2022/03/25 12:43:31;;;;;;;7.67;5.43;;;21.30;22.60;;;;;;5072343;28;20917;-68